Terminal Aerodrome Forecast
Issued by NWS Oklahoma City, OK

Home | Current Version | Previous Version | Text Only | Print | Product List | Glossary On
Versions: 1 2 3 4 5 6 7 8 9 10 11 12 13 14 15 16 17 18 19 20 21 22 23 24 25 26 27 28 29 30 31 32 33 34 35
000
FTUS44 KOUN 272229 AAB
TAFOUN
TAF AMD
KOUN 272229Z 2722/2818 17010KT P6SM VCTS BKN040CB
      TEMPO 2723/2801 2SM +TSRA BR SCT015 OVC035CB
     FM280100 17010KT P6SM SCT100=

USA.gov is the U.S. government's official web portal to all federal, state and local government web resources and services.